createdAt,value
2018-06-28T00:00:25.533Z,992.94
2018-06-28T00:01:35.661Z,992.95
2018-06-28T00:02:44.913Z,992.92
2018-06-28T00:03:55.002Z,992.9
2018-06-28T00:05:04.802Z,992.89
2018-06-28T00:06:13.797Z,992.88
2018-06-28T00:07:23.929Z,992.89
2018-06-28T00:08:34.000Z,992.9
2018-06-28T00:09:44.088Z,992.82
2018-06-28T00:10:53.896Z,992.86
2018-06-28T00:12:03.695Z,992.84
2018-06-28T00:13:13.819Z,992.85
2018-06-28T00:14:23.347Z,992.84
2018-06-28T00:15:33.159Z,992.87
2018-06-28T00:16:42.973Z,992.86
2018-06-28T00:17:53.052Z,992.87
2018-06-28T00:19:02.892Z,992.85
2018-06-28T00:20:12.686Z,992.82
2018-06-28T00:21:22.781Z,992.88
2018-06-28T00:22:32.574Z,992.83
2018-06-28T00:23:42.113Z,992.84
2018-06-28T00:24:52.238Z,992.89
2018-06-28T00:26:02.293Z,992.86
2018-06-28T00:27:11.839Z,992.86
2018-06-28T00:28:21.628Z,992.82
2018-06-28T00:29:31.157Z,992.85
2018-06-28T00:30:41.001Z,992.8
2018-06-28T00:31:50.523Z,992.8
2018-06-28T00:33:00.602Z,992.82
2018-06-28T00:34:10.142Z,992.81
2018-06-28T00:35:19.929Z,992.83
2018-06-28T00:36:29.768Z,992.77
2018-06-28T00:37:39.851Z,992.75
2018-06-28T00:38:49.392Z,992.73
2018-06-28T00:39:59.486Z,992.79
2018-06-28T00:41:09.024Z,992.84
2018-06-28T00:42:19.208Z,992.75
2018-06-28T00:43:29.282Z,992.69
2018-06-28T00:44:39.229Z,992.68
2018-06-28T00:45:49.311Z,992.72
2018-06-28T00:46:59.398Z,992.71
2018-06-28T00:48:09.519Z,992.73
2018-06-28T00:49:19.332Z,992.75
2018-06-28T00:50:29.142Z,992.73
2018-06-28T00:51:38.948Z,992.77
2018-06-28T00:52:49.022Z,992.73
2018-06-28T00:53:59.148Z,992.74
2018-06-28T00:55:08.953Z,992.68
2018-06-28T00:56:19.034Z,992.69
2018-06-28T00:57:28.563Z,992.68
2018-06-28T00:58:38.117Z,992.73
2018-06-28T00:59:47.424Z,992.73
2018-06-28T01:00:57.486Z,992.72
2018-06-28T01:02:07.298Z,992.69
2018-06-28T01:03:17.094Z,992.65
2018-06-28T01:04:26.891Z,992.63
2018-06-28T01:05:36.751Z,992.62
2018-06-28T01:06:46.564Z,992.58
2018-06-28T01:07:56.650Z,992.55
2018-06-28T01:09:06.443Z,992.59
2018-06-28T01:10:16.240Z,992.56
2018-06-28T01:11:26.094Z,992.58
2018-06-28T01:12:35.623Z,992.56
2018-06-28T01:13:45.710Z,992.52
2018-06-28T01:14:55.782Z,992.53
2018-06-28T01:16:05.595Z,992.55
2018-06-28T01:17:15.740Z,992.51
2018-06-28T01:18:25.841Z,992.51
2018-06-28T01:19:34.843Z,992.53
2018-06-28T01:20:44.669Z,992.53
2018-06-28T01:21:54.461Z,992.56
2018-06-28T01:23:04.306Z,992.58
2018-06-28T01:24:13.563Z,992.56
2018-06-28T01:25:23.644Z,992.59
2018-06-28T01:26:32.636Z,992.6
2018-06-28T01:27:42.728Z,992.64
2018-06-28T01:28:52.842Z,992.61
2018-06-28T01:30:02.644Z,992.57
2018-06-28T01:31:12.192Z,992.6
2018-06-28T01:32:22.245Z,992.64
2018-06-28T01:33:31.492Z,992.62
2018-06-28T01:34:41.370Z,992.63
2018-06-28T01:35:51.176Z,992.6
2018-06-28T01:37:01.271Z,992.59
2018-06-28T01:38:10.808Z,992.57
2018-06-28T01:39:20.888Z,992.58
2018-06-28T01:40:30.751Z,992.54
2018-06-28T01:41:40.611Z,992.56
2018-06-28T01:42:50.670Z,992.56
2018-06-28T01:44:00.750Z,992.57
2018-06-28T01:45:10.843Z,992.55
2018-06-28T01:46:20.720Z,992.58
2018-06-28T01:47:30.524Z,992.57
2018-06-28T01:48:39.788Z,992.53
2018-06-28T01:49:49.852Z,992.55
2018-06-28T01:50:59.920Z,992.53
2018-06-28T01:52:09.522Z,992.54
2018-06-28T01:53:19.581Z,992.55
2018-06-28T01:54:29.100Z,992.53
2018-06-28T01:55:39.159Z,992.55
2018-06-28T01:56:49.232Z,992.57
2018-06-28T01:57:59.365Z,992.58
2018-06-28T01:59:09.168Z,992.54
2018-06-28T02:00:19.239Z,992.55
2018-06-28T02:01:29.317Z,992.53
2018-06-28T02:02:39.109Z,992.55
2018-06-28T02:03:48.684Z,992.54
2018-06-28T02:04:58.763Z,992.51
2018-06-28T02:06:08.849Z,992.49
2018-06-28T02:07:18.967Z,992.52
2018-06-28T02:08:29.039Z,992.5
2018-06-28T02:09:39.150Z,992.56
2018-06-28T02:10:48.951Z,992.51
2018-06-28T02:11:59.020Z,992.53
2018-06-28T02:13:08.822Z,992.54
2018-06-28T02:14:18.905Z,992.54
2018-06-28T02:15:28.756Z,992.5
2018-06-28T02:16:38.029Z,992.51
2018-06-28T02:17:48.098Z,992.5
2018-06-28T02:18:58.164Z,992.51
2018-06-28T02:20:08.249Z,992.43
2018-06-28T02:21:18.090Z,992.43
2018-06-28T02:22:27.900Z,992.49
2018-06-28T02:23:37.981Z,992.43
2018-06-28T02:24:48.073Z,992.42
2018-06-28T02:25:58.146Z,992.41
2018-06-28T02:27:07.997Z,992.4
2018-06-28T02:28:17.260Z,992.4
2018-06-28T02:29:27.344Z,992.34
2018-06-28T02:30:37.156Z,992.35
2018-06-28T02:31:47.250Z,992.4
2018-06-28T02:32:56.860Z,992.38
2018-06-28T02:34:06.669Z,992.34
2018-06-28T02:35:16.739Z,992.38
2018-06-28T02:36:26.549Z,992.39
2018-06-28T02:37:36.350Z,992.41
2018-06-28T02:38:46.491Z,992.44
2018-06-28T02:39:55.759Z,992.45
2018-06-28T02:41:05.880Z,992.45
2018-06-28T02:42:15.962Z,992.45
2018-06-28T02:43:25.766Z,992.5
2018-06-28T02:44:35.353Z,992.48
2018-06-28T02:45:45.148Z,992.44
2018-06-28T02:46:55.218Z,992.45
2018-06-28T02:48:05.034Z,992.43
2018-06-28T02:49:14.844Z,992.41
2018-06-28T02:50:24.429Z,992.41
2018-06-28T02:51:34.516Z,992.4
2018-06-28T02:52:44.604Z,992.33
2018-06-28T02:53:54.406Z,992.33
2018-06-28T02:55:04.219Z,992.28
2018-06-28T02:56:14.079Z,992.31
2018-06-28T02:57:23.910Z,992.31
2018-06-28T02:58:33.982Z,992.23
2018-06-28T02:59:44.066Z,992.26
2018-06-28T03:03:32.516Z,992.13
2018-06-28T03:04:42.336Z,992.1
2018-06-28T03:05:52.122Z,992.12
2018-06-28T03:07:02.212Z,992.13
2018-06-28T03:08:11.755Z,992.13
2018-06-28T03:09:21.889Z,992.14
2018-06-28T03:10:31.424Z,992.12
2018-06-28T03:11:40.991Z,992.15
2018-06-28T03:12:50.245Z,992.15
2018-06-28T03:14:00.312Z,992.16
2018-06-28T03:15:09.905Z,992.1
2018-06-28T03:16:19.719Z,992.11
2018-06-28T03:17:29.542Z,992.11
2018-06-28T03:18:39.619Z,992.13
2018-06-28T03:19:49.688Z,992.18
2018-06-28T03:20:59.832Z,992.19
2018-06-28T03:22:09.908Z,992.17
2018-06-28T03:23:19.986Z,992.17
2018-06-28T03:24:30.056Z,992.16
2018-06-28T03:25:40.124Z,992.17
2018-06-28T03:26:49.982Z,992.13
2018-06-28T03:28:00.068Z,992.09
2018-06-28T03:29:10.140Z,992.11
2018-06-28T03:30:20.211Z,992.1
2018-06-28T03:31:30.284Z,992.09
2018-06-28T03:32:40.417Z,992.09
2018-06-28T03:33:50.236Z,992.05
2018-06-28T03:34:59.767Z,992.04
2018-06-28T03:36:09.295Z,992.01
2018-06-28T03:37:19.378Z,991.99
2018-06-28T03:38:29.520Z,991.99
2018-06-28T03:39:39.577Z,992.05
2018-06-28T03:40:49.655Z,992.05
2018-06-28T03:41:59.717Z,992.01
2018-06-28T03:43:09.801Z,992.01
2018-06-28T03:44:19.918Z,992.03
2018-06-28T03:45:29.981Z,992.01
2018-06-28T03:46:40.063Z,992.01
2018-06-28T03:47:49.887Z,991.99
2018-06-28T03:48:59.696Z,991.96
2018-06-28T03:50:08.992Z,991.97
2018-06-28T03:51:19.082Z,991.91
2018-06-28T03:52:28.881Z,991.95
2018-06-28T03:53:38.958Z,991.97
2018-06-28T03:54:49.042Z,992.03
2018-06-28T03:55:58.888Z,992.07
2018-06-28T03:57:08.135Z,992.08
2018-06-28T03:58:18.274Z,992.08
2018-06-28T03:59:27.796Z,992.08
2018-06-28T04:00:37.585Z,992.09
2018-06-28T04:01:47.453Z,992.08
2018-06-28T04:02:57.292Z,992.08
2018-06-28T04:04:07.089Z,992.07
2018-06-28T04:05:17.162Z,992.07
2018-06-28T04:06:27.282Z,992.07
2018-06-28T04:07:37.635Z,992.05
2018-06-28T04:08:47.719Z,992.06
2018-06-28T04:09:57.805Z,992.02
2018-06-28T04:11:07.604Z,991.96
2018-06-28T04:12:17.679Z,991.94
2018-06-28T04:13:27.536Z,991.94
2018-06-28T04:14:37.603Z,991.93
2018-06-28T04:15:47.683Z,991.93
2018-06-28T04:16:57.491Z,991.9
2018-06-28T04:18:07.009Z,991.92
2018-06-28T04:19:16.841Z,991.94
2018-06-28T04:20:26.088Z,991.94
2018-06-28T04:21:36.148Z,991.98
2018-06-28T04:22:46.228Z,991.96
2018-06-28T04:23:55.766Z,991.92
2018-06-28T04:25:05.360Z,991.91
2018-06-28T04:26:15.163Z,991.9
2018-06-28T04:27:25.280Z,991.92
2018-06-28T04:28:35.157Z,991.92
2018-06-28T04:29:45.232Z,991.94
2018-06-28T04:30:55.091Z,991.96
2018-06-28T04:32:04.892Z,991.98
2018-06-28T04:33:14.961Z,991.94
2018-06-28T04:34:25.174Z,991.92
2018-06-28T04:35:34.961Z,991.92
2018-06-28T04:36:45.077Z,991.96
2018-06-28T04:37:54.327Z,991.89
2018-06-28T04:39:04.148Z,991.85
2018-06-28T04:40:13.152Z,991.81
2018-06-28T04:41:23.224Z,991.77
2018-06-28T04:42:33.085Z,991.74
2018-06-28T04:43:42.898Z,991.75
2018-06-28T04:44:52.971Z,991.76
2018-06-28T04:46:02.795Z,991.76
2018-06-28T04:47:12.848Z,991.8
2018-06-28T04:48:22.995Z,991.8
2018-06-28T04:49:33.065Z,991.78
2018-06-28T04:50:43.160Z,991.81
2018-06-28T04:51:53.252Z,991.77
2018-06-28T04:53:03.316Z,991.78
2018-06-28T04:54:13.448Z,991.74
2018-06-28T04:55:23.521Z,991.7
2018-06-28T04:56:33.593Z,991.73
2018-06-28T04:57:43.671Z,991.7
2018-06-28T04:58:53.811Z,991.66
2018-06-28T05:00:03.404Z,991.68
2018-06-28T05:01:13.221Z,991.73
2018-06-28T05:02:23.557Z,991.69
2018-06-28T05:03:33.638Z,991.66
2018-06-28T05:04:43.712Z,991.71
2018-06-28T05:05:53.296Z,991.74
2018-06-28T05:07:03.165Z,991.76
2018-06-28T05:08:12.620Z,991.8
2018-06-28T05:09:22.700Z,991.78
2018-06-28T05:10:32.562Z,991.81
2018-06-28T05:11:42.713Z,991.83
2018-06-28T05:12:52.509Z,991.81
2018-06-28T05:14:02.323Z,991.83
2018-06-28T05:15:12.402Z,991.79
2018-06-28T05:16:22.491Z,991.79
2018-06-28T05:17:31.796Z,991.71
2018-06-28T05:18:41.590Z,991.69
2018-06-28T05:19:51.395Z,991.68
2018-06-28T05:21:01.475Z,991.7
2018-06-28T05:22:11.547Z,991.67
2018-06-28T05:23:21.430Z,991.68
2018-06-28T05:24:31.415Z,991.71
2018-06-28T05:25:41.474Z,991.69
2018-06-28T05:26:51.661Z,991.68
2018-06-28T05:28:01.739Z,991.64
2018-06-28T05:29:11.593Z,991.69
2018-06-28T05:30:21.998Z,991.64
2018-06-28T05:31:31.800Z,991.65
2018-06-28T05:32:41.052Z,991.66
2018-06-28T05:33:51.128Z,991.66
2018-06-28T05:35:01.027Z,991.63
2018-06-28T05:36:10.801Z,991.65
2018-06-28T05:37:20.867Z,991.61
2018-06-28T05:38:30.680Z,991.55
2018-06-28T05:39:40.470Z,991.52
2018-06-28T05:40:50.319Z,991.49
2018-06-28T05:42:00.390Z,991.49
2018-06-28T05:43:10.201Z,991.46
2018-06-28T05:44:20.279Z,991.44
2018-06-28T05:45:29.826Z,991.42
2018-06-28T05:46:39.975Z,991.41
2018-06-28T05:47:49.776Z,991.44
2018-06-28T05:48:59.855Z,991.35
2018-06-28T05:50:09.949Z,991.34
2018-06-28T05:51:20.037Z,991.31
2018-06-28T05:52:30.154Z,991.24
2018-06-28T05:53:39.973Z,991.26
2018-06-28T05:54:49.769Z,991.3
2018-06-28T05:55:59.875Z,991.23
2018-06-28T05:57:09.694Z,991.23
2018-06-28T05:58:19.806Z,991.17
2018-06-28T05:59:29.900Z,991.2
2018-06-28T06:00:39.700Z,991.14
2018-06-28T06:01:49.505Z,991.14
2018-06-28T06:02:59.297Z,991.13
2018-06-28T06:04:09.408Z,991.13
2018-06-28T06:05:19.490Z,991.08
2018-06-28T06:06:29.316Z,991.1
2018-06-28T06:07:39.136Z,991.06
2018-06-28T06:08:49.264Z,991.09
2018-06-28T06:09:59.390Z,991.13
2018-06-28T06:11:09.479Z,991.09
2018-06-28T06:12:19.562Z,991.04
2018-06-28T06:13:29.359Z,991.11
2018-06-28T06:14:39.449Z,991.09
2018-06-28T06:15:49.330Z,991.1
2018-06-28T06:16:59.430Z,991.14
2018-06-28T06:18:09.497Z,991.16
2018-06-28T06:19:19.556Z,991.12
2018-06-28T06:20:29.103Z,991.16
2018-06-28T06:21:39.255Z,991.08
2018-06-28T06:22:49.058Z,991.05
2018-06-28T06:23:58.875Z,991.06
2018-06-28T06:25:09.165Z,991.06
2018-06-28T06:26:19.289Z,991.1
2018-06-28T06:27:28.888Z,991.05
2018-06-28T06:28:38.969Z,991.09
2018-06-28T06:29:49.037Z,991.1
2018-06-28T06:30:58.575Z,991.13
2018-06-28T06:32:07.843Z,991.13
2018-06-28T06:33:17.979Z,991.14
2018-06-28T06:34:27.518Z,991.12
2018-06-28T06:35:37.744Z,991.1
2018-06-28T06:36:47.703Z,991.13
2018-06-28T06:38:17.145Z,991.13
2018-06-28T06:39:27.253Z,991.14
2018-06-28T06:40:37.335Z,991.1
2018-06-28T06:41:47.399Z,991.13
2018-06-28T06:42:57.489Z,991.11
2018-06-28T06:44:07.066Z,991.13
2018-06-28T06:45:17.139Z,991.1
2018-06-28T06:46:26.671Z,991.07
2018-06-28T06:47:36.471Z,991.13
2018-06-28T06:48:46.288Z,991.12
2018-06-28T06:49:56.639Z,991.12
2018-06-28T06:51:06.699Z,991.16
2018-06-28T06:52:16.786Z,991.11
2018-06-28T06:53:26.854Z,991.11
2018-06-28T06:54:36.401Z,991.08
2018-06-28T06:55:46.282Z,991.08
2018-06-28T06:56:55.809Z,991.02
2018-06-28T06:58:05.626Z,991
2018-06-28T06:59:15.713Z,990.94
2018-06-28T07:00:25.524Z,990.91
2018-06-28T07:01:35.716Z,990.8
2018-06-28T07:02:45.789Z,990.78
2018-06-28T07:03:55.865Z,990.79
2018-06-28T07:05:05.401Z,990.71
2018-06-28T07:06:15.483Z,990.71
2018-06-28T07:07:25.339Z,990.73
2018-06-28T07:08:35.430Z,990.73
2018-06-28T07:09:45.527Z,990.68
2018-06-28T07:10:55.606Z,990.7
2018-06-28T07:12:05.423Z,990.72
2018-06-28T07:13:15.578Z,990.74
2018-06-28T07:14:25.669Z,990.69
2018-06-28T07:15:35.756Z,990.69
2018-06-28T07:16:45.573Z,990.67
2018-06-28T07:17:55.388Z,990.69
2018-06-28T07:19:05.263Z,990.69
2018-06-28T07:20:15.345Z,990.71
2018-06-28T07:21:25.441Z,990.67
2018-06-28T07:22:34.971Z,990.67
2018-06-28T07:23:44.533Z,990.63
2018-06-28T07:24:54.675Z,990.57
2018-06-28T07:26:04.211Z,990.55
2018-06-28T07:27:13.755Z,990.55
2018-06-28T07:28:23.308Z,990.57
2018-06-28T07:29:33.458Z,990.46
2018-06-28T07:30:43.045Z,990.48
2018-06-28T07:31:52.593Z,990.46
2018-06-28T07:33:02.403Z,990.43
2018-06-28T07:34:12.772Z,990.4
2018-06-28T07:35:23.139Z,990.39
2018-06-28T07:36:32.990Z,990.43
2018-06-28T07:37:43.078Z,990.47
2018-06-28T07:38:53.164Z,990.47
2018-06-28T07:40:02.985Z,990.48
2018-06-28T07:41:12.809Z,990.4
2018-06-28T07:42:22.751Z,990.46
2018-06-28T07:43:32.995Z,990.44
2018-06-28T07:44:42.812Z,990.44
2018-06-28T07:45:52.882Z,990.52
2018-06-28T07:47:02.687Z,990.4
2018-06-28T07:48:12.609Z,990.43
2018-06-28T07:49:22.431Z,990.43
2018-06-28T07:50:32.519Z,990.41
2018-06-28T07:51:42.607Z,990.37
2018-06-28T07:52:52.170Z,990.34
2018-06-28T07:54:02.035Z,990.34
2018-06-28T07:55:11.978Z,990.35
2018-06-28T07:56:21.895Z,990.37
2018-06-28T07:57:31.438Z,990.34
2018-06-28T07:58:41.495Z,990.39
2018-06-28T07:59:50.815Z,990.37
2018-06-28T08:01:00.879Z,990.3
2018-06-28T08:02:10.965Z,990.29
2018-06-28T08:03:20.772Z,990.22
2018-06-28T08:04:30.859Z,990.26
2018-06-28T08:05:41.007Z,990.21
2018-06-28T08:06:51.090Z,990.21
2018-06-28T08:08:00.892Z,990.17
2018-06-28T08:09:10.978Z,990.2
2018-06-28T08:10:21.059Z,990.21
2018-06-28T08:11:31.181Z,990.26
2018-06-28T08:12:41.279Z,990.31
2018-06-28T08:13:51.343Z,990.41
2018-06-28T08:15:00.867Z,990.32
2018-06-28T08:16:10.674Z,990.23
2018-06-28T08:17:20.540Z,990.21
2018-06-28T08:18:30.371Z,990.17
2018-06-28T08:19:40.185Z,990.09
2018-06-28T08:20:50.028Z,990.08
2018-06-28T08:22:00.135Z,990.07
2018-06-28T08:23:10.000Z,990.1
2018-06-28T08:24:20.104Z,990.11
2018-06-28T08:25:30.162Z,990.12
2018-06-28T08:26:39.969Z,990.15
2018-06-28T08:27:50.074Z,990.12
2018-06-28T08:29:00.185Z,990.23
2018-06-28T08:30:10.007Z,990.12
2018-06-28T08:31:20.122Z,990.24
2018-06-28T08:32:30.187Z,990.23
2018-06-28T08:33:40.023Z,990.17
2018-06-28T08:34:49.613Z,990.16
2018-06-28T08:35:59.534Z,990.19
2018-06-28T08:37:09.893Z,990.2
2018-06-28T08:38:19.698Z,990.15
2018-06-28T08:39:29.500Z,990.12
2018-06-28T08:40:39.368Z,990.2
2018-06-28T08:41:49.459Z,990.12
2018-06-28T08:42:59.281Z,990.28
2018-06-28T08:44:09.119Z,990.22
2018-06-28T08:45:19.207Z,990.14
2018-06-28T08:46:28.788Z,990.12
2018-06-28T08:47:38.072Z,990.18
2018-06-28T08:48:47.891Z,990.35
2018-06-28T08:49:57.505Z,990.21
2018-06-28T08:51:07.043Z,990.15
2018-06-28T08:52:17.209Z,990.13
2018-06-28T08:53:26.743Z,990.08
2018-06-28T08:54:36.549Z,990.13
2018-06-28T08:55:46.340Z,990.07
2018-06-28T08:56:55.617Z,990.04
2018-06-28T08:58:05.626Z,990.04
2018-06-28T08:59:15.617Z,990.02
2018-06-28T09:00:25.692Z,990.02
2018-06-28T09:01:35.795Z,990.1
2018-06-28T09:02:45.407Z,990.09
2018-06-28T09:03:55.553Z,990.09
2018-06-28T09:05:05.757Z,990.14
2018-06-28T09:06:15.852Z,990.12
2018-06-28T09:07:25.942Z,990.11
2018-06-28T09:08:35.759Z,990.04
2018-06-28T09:09:45.347Z,990.07
2018-06-28T09:10:55.423Z,990.08
2018-06-28T09:12:05.521Z,990
2018-06-28T09:13:15.348Z,990.01
2018-06-28T09:14:25.436Z,989.95
2018-06-28T09:15:35.572Z,990.01
2018-06-28T09:16:45.380Z,989.95
2018-06-28T09:17:55.194Z,989.95
2018-06-28T09:19:05.301Z,989.96
2018-06-28T09:20:15.396Z,989.96
2018-06-28T09:21:25.628Z,989.88
2018-06-28T09:22:35.736Z,989.87
2018-06-28T09:23:45.262Z,989.94
2018-06-28T09:24:55.082Z,989.89
2018-06-28T09:26:05.169Z,989.95
2018-06-28T09:27:15.303Z,989.94
2018-06-28T09:28:24.826Z,989.95
2018-06-28T09:29:34.622Z,989.95
2018-06-28T09:30:44.721Z,989.99
2018-06-28T09:31:53.988Z,990
2018-06-28T09:33:03.575Z,990
2018-06-28T09:34:13.374Z,989.95
2018-06-28T09:35:23.461Z,989.88
2018-06-28T09:36:32.995Z,989.87
2018-06-28T09:37:42.788Z,989.85
2018-06-28T09:38:52.384Z,989.86
2018-06-28T09:40:01.925Z,989.82
2018-06-28T09:41:11.753Z,989.8
2018-06-28T09:42:21.019Z,989.75
2018-06-28T09:43:30.829Z,989.67
2018-06-28T09:44:40.412Z,989.67
2018-06-28T09:45:50.223Z,989.6
2018-06-28T09:46:59.781Z,989.6
2018-06-28T09:48:09.585Z,989.59
2018-06-28T09:49:19.108Z,989.53
2018-06-28T09:50:28.705Z,989.61
2018-06-28T09:51:38.780Z,989.56
2018-06-28T09:52:48.876Z,989.57
2018-06-28T09:53:58.431Z,989.53
2018-06-28T09:55:07.975Z,989.52
2018-06-28T09:56:18.121Z,989.52
2018-06-28T09:57:28.216Z,989.44
2018-06-28T09:58:38.035Z,989.43
2018-06-28T09:59:47.844Z,989.45
2018-06-28T10:00:57.920Z,989.46
2018-06-28T10:02:07.504Z,989.5
2018-06-28T10:03:17.591Z,989.49
2018-06-28T10:04:27.404Z,989.45
2018-06-28T10:05:37.206Z,989.4
2018-06-28T10:06:47.065Z,989.36
2018-06-28T10:07:57.663Z,989.41
2018-06-28T10:09:07.752Z,989.37
2018-06-28T10:10:17.840Z,989.41
2018-06-28T10:11:27.646Z,989.46
2018-06-28T10:12:37.180Z,989.41
2018-06-28T10:13:47.095Z,989.45
2018-06-28T10:14:56.916Z,989.46
2018-06-28T10:16:06.186Z,989.43
2018-06-28T10:17:15.736Z,989.41
2018-06-28T10:18:25.798Z,989.42
2018-06-28T10:19:35.381Z,989.36
2018-06-28T10:20:45.188Z,989.32
2018-06-28T10:21:54.984Z,989.25
2018-06-28T10:23:05.070Z,989.22
2018-06-28T10:24:15.126Z,989.22
2018-06-28T10:25:25.256Z,989.25
2018-06-28T10:26:35.347Z,989.28
2018-06-28T10:27:44.611Z,989.27
2018-06-28T10:28:54.441Z,989.27
2018-06-28T10:30:04.263Z,989.26
2018-06-28T10:31:14.415Z,989.25
2018-06-28T10:32:24.241Z,989.23
2018-06-28T10:33:34.336Z,989.17
2018-06-28T10:34:44.410Z,989.15
2018-06-28T10:35:54.222Z,989.13
2018-06-28T10:37:03.815Z,989.07
2018-06-28T10:38:13.352Z,989.06
2018-06-28T10:39:23.432Z,989.09
2018-06-28T10:40:32.966Z,989.06
2018-06-28T10:41:42.509Z,989.06
2018-06-28T10:42:52.101Z,989.05
2018-06-28T10:44:02.155Z,989.06
2018-06-28T10:45:11.976Z,989
2018-06-28T10:46:21.788Z,988.98
2018-06-28T10:47:31.624Z,988.98
2018-06-28T10:48:41.944Z,989
2018-06-28T10:49:52.026Z,988.95
2018-06-28T10:51:01.844Z,988.99
2018-06-28T10:52:11.653Z,988.96
2018-06-28T10:53:21.720Z,988.93
2018-06-28T10:54:31.848Z,988.92
2018-06-28T10:55:41.669Z,988.93
2018-06-28T10:56:51.484Z,988.99
2018-06-28T10:58:01.306Z,988.95
2018-06-28T10:59:11.124Z,988.95
2018-06-28T11:00:20.984Z,988.93
2018-06-28T11:01:31.075Z,988.88
2018-06-28T11:02:40.988Z,988.9
2018-06-28T11:03:50.800Z,988.91
2018-06-28T11:05:00.890Z,988.91
2018-06-28T11:06:11.033Z,988.9
2018-06-28T11:07:21.147Z,988.9
2018-06-28T11:08:31.188Z,988.91
2018-06-28T11:09:40.768Z,988.9
2018-06-28T11:10:50.317Z,988.8
2018-06-28T11:12:00.457Z,988.86
2018-06-28T11:13:10.564Z,988.77
2018-06-28T11:14:20.656Z,988.83
2018-06-28T11:15:30.467Z,988.82
2018-06-28T11:16:40.497Z,988.79
2018-06-28T11:17:50.380Z,988.78
2018-06-28T11:19:00.475Z,988.75
2018-06-28T11:20:10.585Z,988.77
2018-06-28T11:21:20.136Z,988.76
2018-06-28T11:22:29.945Z,988.72
2018-06-28T11:23:40.072Z,988.74
2018-06-28T11:24:50.156Z,988.68
2018-06-28T11:26:00.215Z,988.67
2018-06-28T11:27:10.028Z,988.67
2018-06-28T11:28:20.091Z,988.64
2018-06-28T11:29:30.219Z,988.61
2018-06-28T11:30:39.756Z,988.6
2018-06-28T11:31:49.566Z,988.59
2018-06-28T11:32:59.654Z,988.56
2018-06-28T11:34:09.535Z,988.54
2018-06-28T11:35:19.571Z,988.56
2018-06-28T11:36:29.118Z,988.55
2018-06-28T11:37:39.194Z,988.59
2018-06-28T11:38:49.285Z,988.57
2018-06-28T11:39:59.112Z,988.62
2018-06-28T11:41:09.237Z,988.63
2018-06-28T11:42:19.328Z,988.61
2018-06-28T11:43:29.413Z,988.61
2018-06-28T11:44:39.470Z,988.57
2018-06-28T11:45:49.551Z,988.61
2018-06-28T11:46:59.398Z,988.72
2018-06-28T11:48:09.505Z,988.79
2018-06-28T11:49:19.595Z,988.61
2018-06-28T11:50:29.412Z,988.53
2018-06-28T11:51:39.210Z,988.69
2018-06-28T11:52:49.330Z,988.69
2018-06-28T11:53:59.137Z,988.66
2018-06-28T11:55:08.934Z,988.67
2018-06-28T11:56:19.019Z,988.46
2018-06-28T11:57:28.558Z,988.4
2018-06-28T11:58:38.680Z,988.36
2018-06-28T11:59:48.223Z,988.45
2018-06-28T12:00:58.315Z,988.44
2018-06-28T12:02:08.185Z,988.43
2018-06-28T12:03:17.448Z,988.46
2018-06-28T12:04:27.311Z,988.52
2018-06-28T12:05:36.929Z,988.55
2018-06-28T12:06:47.021Z,988.6
2018-06-28T12:07:56.843Z,988.56
2018-06-28T12:09:06.939Z,988.57
2018-06-28T12:10:16.540Z,988.58
2018-06-28T12:11:26.352Z,988.52
2018-06-28T12:12:36.438Z,988.52
2018-06-28T12:13:46.261Z,988.51
2018-06-28T12:14:56.349Z,988.53
2018-06-28T12:16:06.253Z,988.46
2018-06-28T12:17:15.738Z,988.47
2018-06-28T12:18:25.823Z,988.47
2018-06-28T12:19:35.631Z,988.5
2018-06-28T12:20:45.457Z,988.5
2018-06-28T12:21:55.590Z,988.49
2018-06-28T12:23:05.678Z,988.49
2018-06-28T12:24:15.504Z,988.46
2018-06-28T12:25:25.041Z,988.38
2018-06-28T12:26:35.112Z,988.38
2018-06-28T12:27:45.223Z,988.37
2018-06-28T12:28:55.032Z,988.39
2018-06-28T12:30:04.554Z,988.34
2018-06-28T12:31:14.676Z,988.33
2018-06-28T12:32:24.746Z,988.36
2018-06-28T12:33:34.331Z,988.29
2018-06-28T12:34:43.600Z,988.29
2018-06-28T12:35:53.405Z,988.32
2018-06-28T12:37:02.935Z,988.33
2018-06-28T12:38:12.739Z,988.32
2018-06-28T12:39:22.595Z,988.35
2018-06-28T12:40:32.421Z,988.32
2018-06-28T12:41:41.986Z,988.32
2018-06-28T12:42:51.801Z,988.31
2018-06-28T12:44:01.613Z,988.27
2018-06-28T12:45:11.477Z,988.31
2018-06-28T12:46:21.632Z,988.28
2018-06-28T12:47:31.269Z,988.27
2018-06-28T12:48:41.355Z,988.32
2018-06-28T12:49:51.445Z,988.3
2018-06-28T12:51:00.775Z,988.28
2018-06-28T12:52:10.317Z,988.32
2018-06-28T12:53:20.123Z,988.27
2018-06-28T12:54:29.651Z,988.16
2018-06-28T12:55:39.199Z,988.32
2018-06-28T12:56:49.349Z,988.16
2018-06-28T12:57:59.153Z,988.08
2018-06-28T12:59:08.686Z,988.31
2018-06-28T13:00:18.773Z,988.08
2018-06-28T13:01:28.317Z,988.2
2018-06-28T13:02:38.487Z,988.1
2018-06-28T13:03:48.575Z,988.01
2018-06-28T13:04:58.653Z,987.97
2018-06-28T13:06:08.481Z,987.95
2018-06-28T13:07:18.579Z,987.96
2018-06-28T13:08:28.735Z,987.95
2018-06-28T13:09:38.548Z,988
2018-06-28T13:10:48.631Z,988.03
2018-06-28T13:11:58.169Z,988.1
2018-06-28T13:13:08.303Z,988.08
2018-06-28T13:14:18.540Z,988.07
2018-06-28T13:15:28.353Z,988.03
2018-06-28T13:16:38.173Z,988.06
2018-06-28T13:17:48.256Z,988.05
2018-06-28T13:18:58.054Z,988.06
2018-06-28T13:20:08.138Z,988.07
2018-06-28T13:21:18.651Z,988.05
2018-06-28T13:22:28.458Z,988.05
2018-06-28T13:23:38.552Z,988.02
2018-06-28T13:24:48.511Z,988
2018-06-28T13:25:58.839Z,988.01
2018-06-28T13:27:08.381Z,987.98
2018-06-28T13:28:17.933Z,987.97
2018-06-28T13:29:28.034Z,987.96
2018-06-28T13:30:37.312Z,987.93
2018-06-28T13:31:47.189Z,987.94
2018-06-28T13:32:56.984Z,987.93
2018-06-28T13:34:06.514Z,987.9
2018-06-28T13:35:16.313Z,987.92
2018-06-28T13:36:25.595Z,987.95
2018-06-28T13:37:35.725Z,987.97
2018-06-28T13:38:45.044Z,987.86
2018-06-28T13:39:54.858Z,987.84
2018-06-28T13:41:05.112Z,987.82
2018-06-28T13:42:16.654Z,987.86
2018-06-28T13:43:27.418Z,987.89
2018-06-28T13:44:37.250Z,987.87
2018-06-28T13:45:47.347Z,987.87
2018-06-28T13:46:57.429Z,987.9
2018-06-28T13:48:06.977Z,987.88
2018-06-28T13:49:17.135Z,987.91
2018-06-28T13:50:26.955Z,987.88
2018-06-28T13:51:36.498Z,987.92
2018-06-28T13:52:46.082Z,987.93
2018-06-28T13:53:56.147Z,987.88
2018-06-28T13:55:05.735Z,987.87
2018-06-28T13:56:15.550Z,987.9
2018-06-28T13:57:25.357Z,987.92
2018-06-28T13:58:34.927Z,987.9
2018-06-28T13:59:45.010Z,987.94
2018-06-28T14:00:54.861Z,988.02
2018-06-28T14:02:04.412Z,987.95
2018-06-28T14:03:14.591Z,987.87
2018-06-28T14:04:25.747Z,987.95
2018-06-28T14:05:35.344Z,987.94
2018-06-28T14:06:45.144Z,987.96
2018-06-28T14:07:55.264Z,988.06
2018-06-28T14:09:05.090Z,987.94
2018-06-28T14:10:15.256Z,987.98
2018-06-28T14:11:24.788Z,987.93
2018-06-28T14:12:34.932Z,987.91
2018-06-28T14:13:44.723Z,987.89
2018-06-28T14:14:54.536Z,987.83
2018-06-28T14:16:04.078Z,987.86
2018-06-28T14:17:14.140Z,987.92
2018-06-28T14:18:23.999Z,987.99
2018-06-28T14:19:34.152Z,988.16
2018-06-28T14:20:44.222Z,987.77
2018-06-28T14:21:54.059Z,987.86
2018-06-28T14:23:04.304Z,987.95
2018-06-28T14:24:13.876Z,987.83
2018-06-28T14:25:23.960Z,987.85
2018-06-28T14:26:34.033Z,987.94
2018-06-28T14:27:44.125Z,988.97
2018-06-28T14:28:53.999Z,988.72
2018-06-28T14:30:03.578Z,988.74
2018-06-28T14:31:13.135Z,988.26
2018-06-28T14:32:23.272Z,988.34
2018-06-28T14:33:32.885Z,989.12
2018-06-28T14:34:42.971Z,989.19
2018-06-28T14:35:52.833Z,987.91
2018-06-28T14:37:02.376Z,989.08
2018-06-28T14:38:12.199Z,988.13